Time;durP1;ratioP1;P1;durP2;ratioP2;P2;SDS_P1;SDS_P2;PMS_P1;PMS_P2;Temp;Humidity;BMP_temperature;BMP_pressure;BME280_temperature;BME280_humidity;BME280_pressure;Samples;Min_cycle;Max_cycle;Signal;HPM_P1;HPM_P2
2022/02/20 00:00:25;;;;;;;5.40;1.90;;;3.60;77.10;;;;;;6205437;23;20159;-84
2022/02/20 00:02:52;;;;;;;5.07;2.10;;;3.60;77.30;;;;;;6204582;23;20233;-85
2022/02/20 00:05:21;;;;;;;3.73;1.90;;;3.60;77.50;;;;;;6205121;23;20183;-85
2022/02/20 00:07:48;;;;;;;6.47;2.00;;;3.70;77.10;;;;;;6206709;23;20229;-84
2022/02/20 00:10:15;;;;;;;4.17;2.10;;;3.80;75.90;;;;;;6204668;23;20162;-87
2022/02/20 00:12:42;;;;;;;6.50;2.20;;;3.80;75.70;;;;;;6204455;23;20226;-83
2022/02/20 00:15:10;;;;;;;4.77;2.13;;;3.80;75.90;;;;;;6204521;23;20171;-83
2022/02/20 00:17:37;;;;;;;5.97;1.67;;;3.80;75.70;;;;;;6203716;23;20211;-84
2022/02/20 00:20:05;;;;;;;6.87;1.70;;;3.90;75.90;;;;;;6203647;23;20198;-85
2022/02/20 00:22:34;;;;;;;8.90;2.13;;;4.00;74.70;;;;;;6202293;23;20262;-83
2022/02/20 00:25:04;;;;;;;5.10;2.03;;;4.00;74.70;;;;;;6176817;23;20547;-84
2022/02/20 00:27:31;;;;;;;6.47;1.60;;;4.00;75.00;;;;;;6200619;23;20910;-84
2022/02/20 00:29:58;;;;;;;6.60;2.00;;;4.10;72.40;;;;;;6203305;23;20528;-84
2022/02/20 00:32:25;;;;;;;6.60;1.70;;;4.20;72.60;;;;;;6201428;23;20206;-84
2022/02/20 00:34:52;;;;;;;4.23;1.50;;;4.30;70.40;;;;;;6202274;23;20174;-84
2022/02/20 00:37:20;;;;;;;4.57;1.70;;;4.40;69.10;;;;;;6203589;23;20231;-83
2022/02/20 00:39:48;;;;;;;3.63;1.60;;;4.60;65.80;;;;;;6205057;23;20182;-83
2022/02/20 00:42:15;;;;;;;3.87;1.70;;;4.60;65.60;;;;;;6202295;23;20238;-83
2022/02/20 00:44:42;;;;;;;2.17;1.40;;;4.60;63.10;;;;;;6204912;23;20178;-84
2022/02/20 00:47:09;;;;;;;7.13;2.00;;;4.70;63.80;;;;;;6203252;23;20238;-84
2022/02/20 00:49:37;;;;;;;5.67;1.50;;;4.80;61.20;;;;;;6205237;23;20260;-85
2022/02/20 00:52:04;;;;;;;4.80;1.63;;;4.80;59.80;;;;;;6203680;23;20202;-84
2022/02/20 00:54:33;;;;;;;5.47;1.50;;;4.90;57.30;;;;;;6206654;23;20179;-83
2022/02/20 00:57:01;;;;;;;5.97;1.83;;;5.00;56.80;;;;;;6203131;23;20206;-83
2022/02/20 00:59:28;;;;;;;4.77;1.83;;;5.00;56.10;;;;;;6201106;23;20760;-83
2022/02/20 01:01:55;;;;;;;4.37;1.60;;;5.10;55.80;;;;;;6200765;23;20228;-83
2022/02/20 01:04:22;;;;;;;5.07;1.80;;;5.20;54.30;;;;;;6202089;23;20263;-85
2022/02/20 01:06:49;;;;;;;4.37;1.40;;;5.20;52.70;;;;;;6202009;23;20214;-86
2022/02/20 01:09:16;;;;;;;4.00;1.37;;;5.30;51.40;;;;;;6203521;23;20259;-83
2022/02/20 01:11:44;;;;;;;4.90;1.53;;;5.30;51.40;;;;;;6203742;23;20214;-83
2022/02/20 01:14:13;;;;;;;4.63;1.90;;;5.30;50.70;;;;;;6202789;23;20211;-83
2022/02/20 01:16:40;;;;;;;2.37;1.20;;;5.30;50.00;;;;;;6201668;23;20234;-84
2022/02/20 01:19:07;;;;;;;3.40;1.40;;;5.40;49.40;;;;;;6175600;23;20205;-83
2022/02/20 01:21:34;;;;;;;4.70;1.60;;;5.40;49.10;;;;;;6200909;23;20277;-86
2022/02/20 01:24:01;;;;;;;4.97;1.60;;;5.40;47.50;;;;;;6201452;23;20202;-83
2022/02/20 01:26:35;;;;;;;8.43;1.53;;;5.40;47.60;;;;;;6151584;23;20245;-85
2022/02/20 01:29:02;;;;;;;5.83;1.30;;;5.40;46.70;;;;;;6201711;23;20257;-83
2022/02/20 01:31:30;;;;;;;2.63;1.20;;;5.50;46.60;;;;;;6176547;23;20222;-83
2022/02/20 01:33:57;;;;;;;4.53;1.73;;;5.50;44.70;;;;;;6202594;23;20174;-84
2022/02/20 01:36:24;;;;;;;2.43;1.60;;;5.50;44.70;;;;;;6200557;23;20174;-87
2022/02/20 01:38:51;;;;;;;3.50;1.57;;;5.50;44.70;;;;;;6201569;23;20174;-83
2022/02/20 01:41:18;;;;;;;4.50;1.73;;;5.50;44.70;;;;;;6200153;23;20234;-85
2022/02/20 01:43:45;;;;;;;5.87;2.80;;;5.60;44.80;;;;;;6204423;23;20202;-88
2022/02/20 01:46:12;;;;;;;5.27;2.60;;;5.60;44.80;;;;;;6199561;23;20175;-81
2022/02/20 01:48:40;;;;;;;4.83;1.50;;;5.60;44.80;;;;;;6202029;23;20242;-81
2022/02/20 01:51:07;;;;;;;3.33;1.43;;;5.70;42.80;;;;;;6202137;23;20230;-80
2022/02/20 01:53:34;;;;;;;4.57;2.30;;;5.70;42.80;;;;;;6197341;23;20665;-80
2022/02/20 01:56:02;;;;;;;3.33;1.50;;;5.70;40.10;;;;;;6197605;23;20221;-83
2022/02/20 01:58:29;;;;;;;2.20;1.23;;;5.70;40.00;;;;;;6201224;23;20211;-83
2022/02/20 02:00:56;;;;;;;2.90;1.20;;;5.70;36.40;;;;;;6200225;23;20205;-84
2022/02/20 02:03:23;;;;;;;3.03;1.90;;;5.70;36.20;;;;;;6197176;23;20222;-86
2022/02/20 02:05:51;;;;;;;2.73;1.40;;;5.70;35.60;;;;;;6201272;23;20175;-83
2022/02/20 02:08:19;;;;;;;3.67;1.77;;;5.70;36.80;;;;;;6178098;23;20209;-85
2022/02/20 02:10:46;;;;;;;1.80;1.00;;;5.60;36.40;;;;;;6204442;23;20210;-84
2022/02/20 02:13:14;;;;;;;3.20;1.13;;;5.60;36.20;;;;;;6203008;23;20214;-84
2022/02/20 02:15:49;;;;;;;6.43;1.40;;;5.50;37.50;;;;;;6202770;23;20222;-84
2022/02/20 02:18:17;;;;;;;3.63;1.70;;;5.50;37.70;;;;;;6202039;23;20230;-83
2022/02/20 02:20:44;;;;;;;7.47;3.20;;;5.40;38.20;;;;;;6203352;23;20255;-83
2022/02/20 02:23:18;;;;;;;3.10;1.80;;;5.60;37.70;;;;;;6202157;23;20207;-85
2022/02/20 02:25:49;;;;;;;3.53;1.30;;;5.70;36.20;;;;;;6203087;23;20198;-84
2022/02/20 02:28:16;;;;;;;2.17;1.30;;;5.80;35.30;;;;;;6204528;23;20208;-84
2022/02/20 02:30:43;;;;;;;1.97;1.63;;;5.60;36.40;;;;;;6204510;23;20209;-85
2022/02/20 02:33:10;;;;;;;4.63;3.27;;;5.60;36.60;;;;;;6201007;23;20217;-84
2022/02/20 02:35:38;;;;;;;3.27;1.73;;;5.60;38.10;;;;;;6204142;23;20182;-84
2022/02/20 02:38:06;;;;;;;3.47;1.43;;;5.50;38.70;;;;;;6203569;23;20202;-84
2022/02/20 02:40:37;;;;;;;2.60;1.10;;;5.40;41.20;;;;;;6202234;23;20242;-84
2022/02/20 02:43:19;;;;;;;3.40;1.50;;;5.30;41.00;;;;;;6202843;23;20529;-86
2022/02/20 02:45:46;;;;;;;3.83;1.43;;;5.40;44.40;;;;;;6200517;23;20163;-84
2022/02/20 02:48:14;;;;;;;3.50;1.47;;;5.20;44.50;;;;;;6153327;23;20207;-84
2022/02/20 02:50:41;;;;;;;3.83;2.73;;;5.00;44.30;;;;;;6204210;23;20182;-83
2022/02/20 02:53:08;;;;;;;3.47;2.60;;;5.10;45.30;;;;;;6188031;23;20206;-83
2022/02/20 02:55:40;;;;;;;4.20;1.50;;;5.20;44.50;;;;;;6204433;23;20209;-84
2022/02/20 02:58:07;;;;;;;6.07;3.20;;;5.00;51.20;;;;;;6190150;23;20706;-83
2022/02/20 03:00:34;;;;;;;4.27;1.40;;;4.90;55.00;;;;;;6204407;23;20222;-85
2022/02/20 03:03:02;;;;;;;3.87;2.10;;;4.80;56.40;;;;;;6202953;23;20206;-83
2022/02/20 03:05:29;;;;;;;2.03;1.50;;;4.80;55.90;;;;;;6177031;23;20238;-84
2022/02/20 03:07:56;;;;;;;4.00;1.60;;;4.80;57.30;;;;;;6203497;23;20221;-85
2022/02/20 03:10:24;;;;;;;2.73;1.23;;;4.90;59.00;;;;;;6201550;23;20174;-85
2022/02/20 03:12:55;;;;;;;2.53;1.40;;;4.70;61.90;;;;;;6187917;23;20209;-85
2022/02/20 03:15:23;;;;;;;5.27;1.23;;;4.50;65.00;;;;;;6202184;23;20190;-88
2022/02/20 03:17:50;;;;;;;2.70;1.23;;;4.50;68.40;;;;;;6200952;23;20207;-85
2022/02/20 03:20:17;;;;;;;3.50;1.40;;;4.40;67.50;;;;;;6177125;23;20205;-83
2022/02/20 03:22:44;;;;;;;3.23;1.00;;;4.50;66.60;;;;;;6176146;23;20208;-85
2022/02/20 03:25:13;;;;;;;2.33;0.97;;;4.40;69.10;;;;;;6203322;23;20178;-85
2022/02/20 03:27:42;;;;;;;4.20;1.30;;;4.20;73.90;;;;;;6205237;23;20233;-85
2022/02/20 03:30:14;;;;;;;1.97;1.10;;;4.10;77.70;;;;;;6205754;23;20178;-84
2022/02/20 03:32:41;;;;;;;2.70;1.10;;;4.10;78.80;;;;;;6203285;23;20248;-85
2022/02/20 03:35:09;;;;;;;3.03;1.60;;;4.00;80.40;;;;;;6202468;23;20234;-84
2022/02/20 03:37:41;;;;;;;2.70;1.00;;;3.90;81.90;;;;;;6152764;23;20213;-85
2022/02/20 03:40:48;;;;;;;3.43;1.20;;;3.90;84.80;;;;;;6208683;23;20219;-83
2022/02/20 03:46:09;;;;;;;4.37;1.10;;;3.80;84.80;;;;;;6206080;23;20197;-85
2022/02/20 03:48:37;;;;;;;1.77;1.20;;;3.80;85.10;;;;;;6207934;23;20202;-84
2022/02/20 03:51:07;;;;;;;3.17;1.23;;;3.80;86.30;;;;;;6181458;23;20174;-84
2022/02/20 03:53:44;;;;;;;1.57;1.10;;;3.70;85.60;;;;;;6192957;23;20205;-84
2022/02/20 03:56:11;;;;;;;2.40;1.50;;;3.80;85.20;;;;;;6204457;23;20190;-85
2022/02/20 03:58:38;;;;;;;4.13;1.47;;;3.80;86.00;;;;;;6204663;23;20206;-85
2022/02/20 04:01:05;;;;;;;2.90;1.30;;;3.90;84.30;;;;;;6204104;23;20209;-84
2022/02/20 04:03:34;;;;;;;4.13;1.53;;;4.00;81.80;;;;;;6152236;23;20198;-84
2022/02/20 04:06:01;;;;;;;3.37;1.20;;;4.00;81.40;;;;;;6203377;23;20179;-84
2022/02/20 04:08:29;;;;;;;3.67;1.27;;;4.10;81.40;;;;;;6203657;23;20210;-84
2022/02/20 04:10:56;;;;;;;4.37;1.50;;;4.00;81.40;;;;;;6205275;23;20170;-84
2022/02/20 04:13:25;;;;;;;2.27;1.27;;;4.00;80.40;;;;;;6204466;23;20242;-84
2022/02/20 04:15:54;;;;;;;3.50;1.10;;;4.10;80.00;;;;;;6179050;23;20182;-84
2022/02/20 04:18:21;;;;;;;2.30;1.53;;;4.20;79.00;;;;;;6204438;23;20264;-86
2022/02/20 04:20:50;;;;;;;1.27;1.10;;;4.20;78.60;;;;;;6205668;23;20181;-84
2022/02/20 04:23:19;;;;;;;3.53;1.33;;;4.30;75.40;;;;;;6204380;23;20225;-83
2022/02/20 04:25:46;;;;;;;3.40;1.10;;;4.30;76.40;;;;;;6206088;23;20175;-84
2022/02/20 04:28:13;;;;;;;2.47;1.20;;;4.30;74.40;;;;;;6204287;23;20203;-88
2022/02/20 04:30:41;;;;;;;3.57;1.30;;;4.40;72.90;;;;;;6205525;23;20174;-84
2022/02/20 04:33:08;;;;;;;3.23;1.30;;;4.40;69.10;;;;;;6204288;23;20225;-85
2022/02/20 04:35:35;;;;;;;2.57;1.20;;;4.50;69.20;;;;;;6204548;23;20175;-85
2022/02/20 04:38:03;;;;;;;4.63;1.17;;;4.60;66.70;;;;;;6204206;23;20217;-83
2022/02/20 04:40:30;;;;;;;2.20;1.10;;;4.80;64.40;;;;;;6204176;23;20202;-84
2022/02/20 04:42:57;;;;;;;2.30;1.07;;;4.90;62.50;;;;;;6202701;23;20258;-83
2022/02/20 04:45:25;;;;;;;1.80;1.30;;;4.90;62.70;;;;;;6176851;23;20174;-88
2022/02/20 04:47:52;;;;;;;2.20;1.10;;;4.80;62.00;;;;;;6201527;23;20270;-84
2022/02/20 04:50:19;;;;;;;2.67;1.20;;;4.90;62.00;;;;;;6201994;23;20221;-84
2022/02/20 04:52:46;;;;;;;1.50;1.30;;;5.00;60.90;;;;;;6202359;23;20211;-85
2022/02/20 04:55:15;;;;;;;3.53;1.27;;;4.90;61.20;;;;;;6201814;23;20209;-87
2022/02/20 04:57:42;;;;;;;3.13;1.67;;;5.00;60.50;;;;;;6200921;23;20254;-83
2022/02/20 05:00:11;;;;;;;2.07;1.40;;;5.00;60.70;;;;;;6202338;23;20241;-84
2022/02/20 05:02:38;;;;;;;1.83;1.20;;;5.00;61.30;;;;;;6200629;23;20210;-85
2022/02/20 05:05:07;;;;;;;4.47;1.30;;;5.10;60.10;;;;;;6202690;23;20175;-83
2022/02/20 05:07:34;;;;;;;5.17;1.90;;;5.00;60.00;;;;;;6203369;23;20202;-84
2022/02/20 05:10:01;;;;;;;2.90;1.40;;;5.00;60.60;;;;;;6176992;23;20199;-83
2022/02/20 05:12:30;;;;;;;3.10;1.33;;;5.10;59.70;;;;;;6201979;23;20213;-84
2022/02/20 05:14:57;;;;;;;1.60;1.20;;;5.10;60.10;;;;;;6203241;23;20591;-86
2022/02/20 05:17:24;;;;;;;4.40;1.40;;;5.20;60.10;;;;;;6201218;23;20238;-83
2022/02/20 05:19:51;;;;;;;1.70;1.10;;;5.10;60.60;;;;;;6203681;23;20178;-83
2022/02/20 05:22:18;;;;;;;1.67;1.10;;;5.20;61.00;;;;;;6202561;23;20213;-85
2022/02/20 05:24:46;;;;;;;4.33;1.30;;;5.20;60.40;;;;;;6202628;23;20209;-83
2022/02/20 05:27:13;;;;;;;1.87;1.20;;;5.20;60.10;;;;;;6203102;23;20207;-84
2022/02/20 05:29:43;;;;;;;4.97;1.50;;;5.10;60.80;;;;;;6202048;23;20219;-84
2022/02/20 05:32:10;;;;;;;4.00;1.40;;;5.10;61.40;;;;;;6201910;23;20206;-85
2022/02/20 05:34:38;;;;;;;9.70;1.77;;;5.30;60.40;;;;;;6176113;23;20189;-84
2022/02/20 05:37:07;;;;;;;2.47;1.17;;;5.20;60.10;;;;;;6202736;23;20198;-84
2022/02/20 05:39:33;;;;;;;1.70;1.20;;;5.30;59.70;;;;;;6204120;23;20182;-85
2022/02/20 05:42:00;;;;;;;2.80;1.57;;;5.20;59.20;;;;;;6201788;23;20225;-86
2022/02/20 05:44:28;;;;;;;1.57;1.30;;;5.30;60.20;;;;;;6204197;23;20179;-83
2022/02/20 05:46:59;;;;;;;1.80;1.17;;;5.40;59.20;;;;;;6189167;23;20683;-83
2022/02/20 05:49:26;;;;;;;3.00;1.60;;;5.30;59.40;;;;;;6202475;23;20202;-84
2022/02/20 05:51:53;;;;;;;3.10;1.40;;;5.20;60.00;;;;;;6201410;23;20650;-83
2022/02/20 05:54:20;;;;;;;4.37;1.30;;;5.30;59.20;;;;;;6201643;23;20185;-84
2022/02/20 05:59:31;;;;;;;2.40;1.10;;;5.40;57.70;;;;;;6202202;23;20214;-87
2022/02/20 06:02:00;;;;;;;4.47;1.40;;;5.30;58.40;;;;;;6201835;23;20206;-83
2022/02/20 06:04:26;;;;;;;2.57;1.23;;;5.40;57.40;;;;;;6202456;23;20838;-86
2022/02/20 06:06:53;;;;;;;3.60;1.10;;;5.40;57.40;;;;;;6200566;23;20229;-85
2022/02/20 06:09:20;;;;;;;2.40;1.20;;;5.40;57.40;;;;;;6199984;23;20717;-85
2022/02/20 06:11:47;;;;;;;2.90;1.30;;;5.50;56.10;;;;;;6200790;23;20281;-85
2022/02/20 06:14:15;;;;;;;2.37;1.20;;;5.60;56.60;;;;;;6200834;23;20179;-84
2022/02/20 06:16:42;;;;;;;2.00;1.00;;;5.60;56.20;;;;;;6199475;23;20266;-84
2022/02/20 06:19:10;;;;;;;2.27;1.27;;;5.70;56.90;;;;;;6200275;23;20201;-83
2022/02/20 06:21:37;;;;;;;1.83;1.20;;;5.60;56.40;;;;;;6199536;23;20249;-84
2022/02/20 06:24:04;;;;;;;2.43;1.30;;;5.60;56.10;;;;;;6199585;23;20175;-84
2022/02/20 06:26:40;;;;;;;4.07;1.27;;;5.60;56.70;;;;;;6200452;23;20229;-86
2022/02/20 06:29:07;;;;;;;2.53;1.23;;;5.60;57.50;;;;;;6175135;23;20209;-83
2022/02/20 06:31:34;;;;;;;2.03;1.17;;;5.50;58.80;;;;;;6201988;23;20226;-83
2022/02/20 06:34:02;;;;;;;3.40;1.50;;;5.50;58.30;;;;;;6200660;23;20627;-85
2022/02/20 06:36:30;;;;;;;2.40;1.40;;;5.60;57.20;;;;;;6199782;23;20270;-83
2022/02/20 06:38:57;;;;;;;4.23;1.43;;;5.70;56.60;;;;;;6201423;23;20548;-83
2022/02/20 06:41:24;;;;;;;3.00;1.40;;;5.60;56.70;;;;;;6199696;23;20162;-84
2022/02/20 06:43:51;;;;;;;2.20;1.33;;;5.60;57.10;;;;;;6200921;23;20178;-85
2022/02/20 06:46:18;;;;;;;3.30;1.37;;;5.70;57.20;;;;;;6199258;23;20181;-84
2022/02/20 06:48:45;;;;;;;2.80;1.50;;;5.70;56.70;;;;;;6199423;23;20285;-84
2022/02/20 06:51:12;;;;;;;2.17;1.37;;;5.80;56.10;;;;;;6200273;23;20202;-85
2022/02/20 06:53:41;;;;;;;2.80;1.40;;;5.80;56.80;;;;;;6202197;23;20261;-84
2022/02/20 06:56:08;;;;;;;2.50;1.20;;;5.70;56.50;;;;;;6200688;23;20217;-84
2022/02/20 06:58:35;;;;;;;3.87;1.40;;;5.80;56.10;;;;;;6200216;23;20201;-84
2022/02/20 07:01:01;;;;;;;1.80;1.17;;;5.80;55.90;;;;;;6200658;23;20202;-84
2022/02/20 07:03:28;;;;;;;2.07;1.40;;;5.90;55.80;;;;;;6200153;23;20221;-83
2022/02/20 07:05:55;;;;;;;2.37;1.37;;;6.00;56.20;;;;;;6200679;23;20198;-84
2022/02/20 07:08:22;;;;;;;2.87;1.37;;;6.00;56.00;;;;;;6199469;23;20218;-85
2022/02/20 07:10:50;;;;;;;3.77;1.33;;;6.00;55.00;;;;;;6199613;23;20258;-83
2022/02/20 07:13:17;;;;;;;3.00;1.37;;;6.10;54.70;;;;;;6172842;23;20249;-86
2022/02/20 07:15:44;;;;;;;2.63;1.43;;;6.10;55.70;;;;;;6176376;23;20181;-84
2022/02/20 07:18:11;;;;;;;3.83;1.40;;;6.00;56.50;;;;;;6201913;23;20249;-83
2022/02/20 07:20:38;;;;;;;2.87;1.50;;;6.00;56.70;;;;;;6200466;23;20174;-82
2022/02/20 07:23:05;;;;;;;2.47;1.60;;;6.00;56.20;;;;;;6200640;23;20225;-81
2022/02/20 07:25:32;;;;;;;2.17;1.40;;;6.10;56.30;;;;;;6202117;23;20217;-81
2022/02/20 07:28:00;;;;;;;2.13;1.40;;;5.90;56.90;;;;;;6200596;23;20250;-82
2022/02/20 07:30:28;;;;;;;2.40;1.40;;;5.90;56.90;;;;;;6200503;23;20229;-81
2022/02/20 07:32:55;;;;;;;1.40;1.30;;;5.90;57.80;;;;;;6199612;23;20202;-81
2022/02/20 07:35:22;;;;;;;3.07;1.63;;;6.00;57.70;;;;;;6201855;23;20238;-81
2022/02/20 07:37:49;;;;;;;3.07;1.37;;;6.00;57.10;;;;;;6201071;23;20273;-82
2022/02/20 07:40:16;;;;;;;3.00;1.30;;;6.10;57.30;;;;;;6201239;23;20202;-81
2022/02/20 07:42:43;;;;;;;2.90;1.40;;;6.30;56.10;;;;;;6200715;23;20214;-84
2022/02/20 07:45:12;;;;;;;2.50;1.40;;;6.40;55.60;;;;;;6202254;23;20179;-81
2022/02/20 07:47:51;;;;;;;3.73;1.30;;;6.50;55.00;;;;;;6202269;23;20249;-84
2022/02/20 07:50:17;;;;;;;5.37;1.40;;;6.60;53.70;;;;;;6201522;23;20198;-85
2022/02/20 07:52:45;;;;;;;2.40;1.43;;;6.70;53.30;;;;;;6202029;23;20259;-84
2022/02/20 07:55:11;;;;;;;2.03;1.40;;;6.70;53.30;;;;;;6174837;23;20178;-83
2022/02/20 07:57:40;;;;;;;2.50;1.30;;;6.80;52.60;;;;;;6201066;23;20222;-84
2022/02/20 08:00:08;;;;;;;1.50;1.40;;;6.90;50.90;;;;;;6203384;23;20178;-81
2022/02/20 08:02:36;;;;;;;2.20;1.47;;;6.80;51.50;;;;;;6199813;23;20250;-81
2022/02/20 08:05:04;;;;;;;1.97;1.17;;;6.70;53.00;;;;;;6200529;23;20277;-81
2022/02/20 08:07:31;;;;;;;2.10;1.47;;;6.70;52.80;;;;;;6201064;23;20253;-83
2022/02/20 08:09:58;;;;;;;3.63;1.50;;;6.70;52.30;;;;;;6200836;23;20262;-82
2022/02/20 08:12:30;;;;;;;3.27;1.43;;;6.70;52.70;;;;;;6199664;23;20286;-83
2022/02/20 08:14:57;;;;;;;1.87;1.30;;;6.70;52.60;;;;;;6198261;23;20206;-81
2022/02/20 08:17:25;;;;;;;2.50;1.83;;;6.70;52.30;;;;;;6200694;23;20206;-84
2022/02/20 08:19:53;;;;;;;2.53;1.27;;;6.70;52.70;;;;;;6203598;23;20529;-83
2022/02/20 08:22:20;;;;;;;3.83;1.40;;;6.80;52.70;;;;;;6203854;23;20202;-84
2022/02/20 08:24:47;;;;;;;2.37;1.50;;;6.90;51.80;;;;;;6201984;23;20221;-83
2022/02/20 08:27:16;;;;;;;1.77;1.13;;;6.80;52.70;;;;;;6202402;23;20588;-84
2022/02/20 08:29:43;;;;;;;2.73;1.00;;;6.80;51.80;;;;;;6201853;23;20267;-83
2022/02/20 08:32:10;;;;;;;3.03;1.47;;;6.80;51.10;;;;;;6200539;23;20210;-86
2022/02/20 08:34:37;;;;;;;1.90;1.20;;;6.80;51.40;;;;;;6202450;23;20175;-83
2022/02/20 08:37:06;;;;;;;2.70;1.70;;;6.70;53.00;;;;;;6151559;23;20203;-83
2022/02/20 08:39:35;;;;;;;2.23;1.33;;;6.80;51.90;;;;;;6202612;23;20230;-83
2022/02/20 08:42:02;;;;;;;5.10;1.70;;;6.80;51.50;;;;;;6203559;23;20265;-85
2022/02/20 08:44:33;;;;;;;2.23;1.37;;;6.70;52.10;;;;;;6176459;23;20175;-83
2022/02/20 08:47:00;;;;;;;2.20;1.33;;;6.70;51.30;;;;;;6203324;23;20211;-83
2022/02/20 08:49:27;;;;;;;3.87;1.50;;;6.70;51.50;;;;;;6176912;23;20205;-83
2022/02/20 08:51:54;;;;;;;3.47;1.50;;;6.70;52.30;;;;;;6201761;23;20281;-84
2022/02/20 08:54:26;;;;;;;2.07;1.33;;;6.70;51.70;;;;;;6202453;23;20198;-83
2022/02/20 08:56:54;;;;;;;1.77;1.27;;;6.80;51.70;;;;;;6190013;23;20229;-86
2022/02/20 08:59:20;;;;;;;3.27;1.70;;;7.00;51.80;;;;;;6208535;23;20171;-85
2022/02/20 09:01:49;;;;;;;2.83;1.40;;;7.00;51.50;;;;;;6203970;23;20214;-83
2022/02/20 09:04:17;;;;;;;2.08;1.40;;;7.20;51.60;;;;;;6204485;23;20202;-85
2022/02/20 09:06:45;;;;;;;1.75;1.20;;;7.50;49.90;;;;;;6204838;23;20209;-84
2022/02/20 09:09:13;;;;;;;1.85;1.25;;;7.90;46.60;;;;;;6179833;23;20171;-84
2022/02/20 09:11:43;;;;;;;2.55;1.20;;;8.00;46.70;;;;;;6204272;23;20257;-83
2022/02/20 09:14:21;;;;;;;2.65;1.40;;;8.20;45.20;;;;;;6178328;23;20185;-86
2022/02/20 09:16:52;;;;;;;2.45;1.50;;;8.20;46.70;;;;;;6203224;23;20217;-84
2022/02/20 09:19:30;;;;;;;4.35;1.38;;;8.10;46.70;;;;;;6201279;23;20186;-84
2022/02/20 09:21:57;;;;;;;3.03;1.52;;;8.30;46.90;;;;;;6183961;23;20313;-86
2022/02/20 09:24:24;;;;;;;3.03;1.67;;;8.50;44.90;;;;;;6187750;23;20257;-86
2022/02/20 09:26:53;;;;;;;5.18;1.50;;;8.50;44.00;;;;;;6191551;23;20202;-86
2022/02/20 09:29:20;;;;;;;2.58;1.60;;;8.70;44.00;;;;;;6190487;23;20206;-87
2022/02/20 09:31:49;;;;;;;3.28;1.73;;;8.80;41.40;;;;;;6186996;23;20500;-89
2022/02/20 09:34:17;;;;;;;3.65;1.85;;;8.90;41.70;;;;;;6183098;23;20596;-89
2022/02/20 09:36:44;;;;;;;1.73;1.60;;;8.90;41.00;;;;;;6186739;23;20721;-87
2022/02/20 09:39:11;;;;;;;2.85;1.75;;;9.00;40.00;;;;;;6186314;23;20245;-87
2022/02/20 09:41:40;;;;;;;3.15;1.35;;;9.10;41.40;;;;;;6191316;23;20507;-85
2022/02/20 09:44:10;;;;;;;2.33;1.40;;;9.40;40.50;;;;;;6191101;23;20189;-85
2022/02/20 09:46:42;;;;;;;3.60;1.42;;;9.80;36.90;;;;;;6192530;23;20316;-85
2022/02/20 09:49:10;;;;;;;2.22;1.40;;;10.10;35.20;;;;;;6194622;23;20222;-86
2022/02/20 09:51:38;;;;;;;2.35;1.48;;;10.40;33.40;;;;;;6194907;23;20270;-86
2022/02/20 09:54:05;;;;;;;2.80;1.50;;;10.70;32.30;;;;;;6198508;23;20171;-86
2022/02/20 09:56:33;;;;;;;2.72;1.60;;;10.80;33.00;;;;;;6194758;23;20590;-85
2022/02/20 09:59:01;;;;;;;2.05;1.27;;;10.90;33.00;;;;;;6198264;23;20173;-86
2022/02/20 10:01:37;;;;;;;2.65;1.50;;;11.30;30.10;;;;;;6198454;23;20179;-85
2022/02/20 10:04:12;;;;;;;1.98;1.35;;;11.60;29.30;;;;;;6197467;23;20190;-86
2022/02/20 10:06:48;;;;;;;2.47;1.23;;;11.60;28.80;;;;;;6195234;23;20210;-86
2022/02/20 10:09:22;;;;;;;3.47;1.52;;;11.70;29.40;;;;;;6202480;23;20162;-85
2022/02/20 10:19:29;;;;;;;1.58;1.17;;;12.00;28.80;;;;;;6052594;23;20181;-86
2022/02/20 10:36:19;;;;;;;1.55;1.23;;;12.50;25.70;;;;;;6017504;23;20177;-88
2022/02/20 10:38:50;;;;;;;1.40;1.10;;;11.60;27.30;;;;;;6034921;23;20434;-86
2022/02/20 10:57:45;;;;;;;2.17;1.10;;;11.60;28.50;;;;;;6031335;23;20243;-86
2022/02/20 11:00:14;;;;;;;1.20;1.10;;;11.30;29.60;;;;;;6113334;23;20179;-85
2022/02/20 11:02:42;;;;;;;2.40;1.30;;;11.20;29.50;;;;;;6193513;23;20222;-85
2022/02/20 11:05:10;;;;;;;1.60;1.20;;;11.30;30.20;;;;;;6200027;23;20173;-85
2022/02/20 11:07:38;;;;;;;2.63;1.10;;;11.40;29.60;;;;;;6174339;23;20213;-84
2022/02/20 11:10:11;;;;;;;1.58;1.40;;;11.40;28.80;;;;;;6171562;23;20224;-84
2022/02/20 11:12:40;;;;;;;2.05;1.50;;;11.50;29.60;;;;;;6197147;23;20237;-87
2022/02/20 11:15:12;;;;;;;3.72;1.60;;;11.50;29.50;;;;;;6200426;23;20167;-86
2022/02/20 11:17:47;;;;;;;1.27;1.17;;;11.70;28.80;;;;;;6174666;23;20206;-85
2022/02/20 11:20:25;;;;;;;2.17;1.25;;;11.90;27.30;;;;;;6202637;23;20232;-87
2022/02/20 11:22:56;;;;;;;1.38;1.00;;;12.10;28.30;;;;;;6198809;23;20191;-86
2022/02/20 11:25:44;;;;;;;1.30;1.10;;;12.00;26.80;;;;;;6176347;23;20186;-86
2022/02/20 11:31:19;;;;;;;1.98;1.30;;;12.00;27.70;;;;;;6200190;23;20198;-85
2022/02/20 11:33:51;;;;;;;1.20;1.10;;;11.70;29.00;;;;;;6198770;23;20194;-87
2022/02/20 11:36:20;;;;;;;3.17;1.55;;;11.50;28.20;;;;;;6197291;23;20166;-89
2022/02/20 11:39:06;;;;;;;3.00;1.48;;;11.40;28.60;;;;;;6174868;23;20199;-84
2022/02/20 11:41:35;;;;;;;2.17;1.40;;;11.30;28.70;;;;;;6195781;23;20209;-86
2022/02/20 11:44:16;;;;;;;1.20;1.10;;;11.10;28.30;;;;;;6195389;23;20198;-84
2022/02/20 11:46:50;;;;;;;3.05;1.20;;;10.90;28.90;;;;;;6195431;23;20242;-85
2022/02/20 11:49:28;;;;;;;3.20;1.00;;;10.80;28.80;;;;;;6194446;23;20269;-86
2022/02/20 11:52:08;;;;;;;2.17;1.30;;;10.80;30.30;;;;;;6192213;23;20229;-87
2022/02/20 11:54:37;;;;;;;1.20;1.10;;;10.60;30.00;;;;;;6191569;23;20167;-86
2022/02/20 11:57:29;;;;;;;1.70;1.27;;;10.80;29.80;;;;;;6193391;23;20293;-86
2022/02/20 12:00:18;;;;;;;1.95;1.00;;;11.00;29.30;;;;;;6197386;23;20170;-85
2022/02/20 12:03:05;;;;;;;2.40;0.95;;;11.20;28.80;;;;;;6197322;23;20277;-84
2022/02/20 12:05:32;;;;;;;2.65;1.40;;;11.10;28.50;;;;;;6196153;23;20249;-84
2022/02/20 12:08:04;;;;;;;1.63;1.10;;;11.00;30.10;;;;;;6195318;23;20221;-86
2022/02/20 12:10:33;;;;;;;1.45;1.35;;;10.90;29.00;;;;;;6196154;23;20211;-86
2022/02/20 12:13:32;;;;;;;3.30;1.15;;;10.90;30.00;;;;;;6194904;23;20202;-87
2022/02/20 12:16:22;;;;;;;2.28;1.00;;;10.90;29.20;;;;;;6196326;23;20218;-86
2022/02/20 12:19:12;;;;;;;0.90;0.85;;;10.90;30.10;;;;;;6195310;23;20250;-84
2022/02/20 12:21:53;;;;;;;2.10;1.20;;;11.10;29.00;;;;;;6194448;23;20271;-84
2022/02/20 12:24:21;;;;;;;1.45;0.98;;;11.30;29.40;;;;;;6196143;23;20681;-87
2022/02/20 12:26:54;;;;;;;1.23;1.05;;;11.70;28.40;;;;;;6194695;23;20251;-85
2022/02/20 12:29:24;;;;;;;1.50;1.00;;;12.10;29.70;;;;;;6196732;23;20544;-86
2022/02/20 12:32:15;;;;;;;1.73;1.30;;;11.90;27.10;;;;;;6194880;23;20254;-84
2022/02/20 12:34:57;;;;;;;2.53;1.40;;;11.50;28.20;;;;;;6193519;23;20218;-86
2022/02/20 12:37:26;;;;;;;2.00;1.38;;;11.40;28.00;;;;;;6192781;23;20669;-85
2022/02/20 12:39:55;;;;;;;1.75;1.30;;;11.20;28.20;;;;;;6169112;23;20202;-86
2022/02/20 12:42:23;;;;;;;2.92;1.40;;;11.10;28.70;;;;;;6192559;23;20214;-84
2022/02/20 12:44:51;;;;;;;1.52;1.42;;;11.20;29.00;;;;;;6192189;23;20215;-88
2022/02/20 12:47:20;;;;;;;1.80;1.23;;;11.40;28.50;;;;;;6193290;23;20249;-88
2022/02/20 12:49:55;;;;;;;1.73;1.42;;;11.20;29.00;;;;;;6190039;23;20536;-84
2022/02/20 12:52:23;;;;;;;1.83;1.30;;;11.10;29.70;;;;;;6190472;23;20253;-84
2022/02/20 12:54:57;;;;;;;1.80;1.50;;;11.00;28.50;;;;;;6191749;23;20575;-87
2022/02/20 12:57:27;;;;;;;1.75;1.40;;;10.90;29.90;;;;;;6193103;23;20199;-84
2022/02/20 13:00:10;;;;;;;1.42;1.30;;;10.80;29.60;;;;;;6192790;23;20198;-86
2022/02/20 13:02:40;;;;;;;3.38;1.80;;;11.00;30.10;;;;;;6193908;23;20554;-85
2022/02/20 13:05:11;;;;;;;2.70;1.73;;;11.00;28.90;;;;;;6194609;23;20182;-86
2022/02/20 13:07:40;;;;;;;1.70;1.50;;;11.00;29.00;;;;;;6191511;23;20211;-84
2022/02/20 13:10:08;;;;;;;2.33;1.10;;;11.00;29.50;;;;;;6193180;23;20622;-86
2022/02/20 13:12:35;;;;;;;1.52;1.30;;;10.90;30.60;;;;;;6191971;23;20508;-87
2022/02/20 13:15:05;;;;;;;1.17;1.08;;;11.00;29.50;;;;;;6166705;23;20186;-84
2022/02/20 13:17:52;;;;;;;1.83;1.10;;;11.20;28.70;;;;;;6194970;23;20285;-85
2022/02/20 13:20:31;;;;;;;1.23;1.00;;;11.10;28.90;;;;;;6165792;23;20169;-85
2022/02/20 13:22:59;;;;;;;1.42;0.90;;;11.00;28.60;;;;;;6193884;23;20245;-85
2022/02/20 13:25:32;;;;;;;1.73;1.00;;;11.10;28.40;;;;;;6172068;23;20181;-85
2022/02/20 13:28:07;;;;;;;1.35;1.00;;;11.10;28.70;;;;;;6166092;23;20210;-85
2022/02/20 13:30:38;;;;;;;1.48;1.10;;;11.10;28.80;;;;;;6193123;23;20494;-84
2022/02/20 13:33:09;;;;;;;1.30;1.20;;;11.10;28.90;;;;;;6191949;23;20234;-87
2022/02/20 13:35:38;;;;;;;1.05;1.00;;;11.10;28.80;;;;;;6192392;23;20197;-84
2022/02/20 13:38:06;;;;;;;1.35;0.90;;;11.00;28.70;;;;;;6194052;23;20237;-86
2022/02/20 13:40:37;;;;;;;1.30;1.17;;;11.00;29.20;;;;;;6194257;23;20179;-84
2022/02/20 13:43:06;;;;;;;1.15;1.10;;;11.00;28.60;;;;;;6194752;23;20209;-87
2022/02/20 13:45:36;;;;;;;2.33;1.45;;;11.00;28.90;;;;;;6195226;23;20167;-84
2022/02/20 13:48:22;;;;;;;1.15;1.02;;;11.00;29.20;;;;;;6195841;23;20260;-85
2022/02/20 13:50:49;;;;;;;1.67;1.10;;;11.10;28.60;;;;;;6192286;23;20194;-84
2022/02/20 13:53:17;;;;;;;1.63;1.00;;;11.20;28.50;;;;;;6194009;23;20596;-87